Terminal Aerodrome Forecast
Issued by NWS

Home | Current Version | Previous Version | Text Only | Print | Product List | Glossary On
Versions: 1 2 3 4 5 6 7 8 9 10 11 12 13 14 15 16 17 18 19 20 21 22 23 24 25 26 27 28 29 30 31 32 33 34
000
FTUS44 KHGX 271738
TAFUTS
TAF
KUTS 271738Z 2718/2818 00000KT P6SM SKC
     FM272000 06007KT P6SM SCT040 BKN120
     FM280100 05003KT P6SM OVC100
     FM280800 02003KT 5SM BR SCT006 BKN090 OVC150
      TEMPO 2813/2815 P6SM -RA BKN025 OVC100
     FM281500 04006KT P6SM VCSH SCT030 BKN120=

USA.gov is the U.S. government's official web portal to all federal, state and local government web resources and services.